createdAt,value
2023-11-01T00:00:07.426Z,98645.72
2023-11-01T00:02:42.549Z,98657.75
2023-11-01T00:05:12.127Z,98663.34
2023-11-01T00:07:40.750Z,98656.69
2023-11-01T00:10:11.343Z,98656.69
2023-11-01T00:12:39.972Z,98664.19
2023-11-01T00:15:10.019Z,98671.63
2023-11-01T00:17:38.686Z,98667.66
2023-11-01T00:20:08.903Z,98670.56
2023-11-01T00:22:37.600Z,98678.00
2023-11-01T00:25:06.974Z,98686.69
2023-11-01T00:27:37.047Z,98682.31
2023-11-01T00:30:06.417Z,98688.09
2023-11-01T00:32:35.105Z,98685.81
2023-11-01T00:35:04.480Z,98678.94
2023-11-01T00:37:33.031Z,98683.50
2023-11-01T00:40:01.592Z,98680.19
2023-11-01T00:42:30.409Z,98673.75
2023-11-01T00:45:00.438Z,98677.28
2023-11-01T00:47:30.661Z,98685.16
2023-11-01T00:49:59.278Z,98682.66
2023-11-01T00:52:28.213Z,98685.16
2023-11-01T00:54:56.729Z,98679.13
2023-11-01T00:57:25.464Z,98684.53
2023-11-01T00:59:54.364Z,98690.97
2023-11-01T01:02:24.441Z,98707.31
2023-11-01T01:04:53.254Z,98707.16
2023-11-01T01:07:21.995Z,98708.78
2023-11-01T01:09:51.396Z,98717.28
2023-11-01T01:12:20.055Z,98721.28
2023-11-01T01:14:48.564Z,98712.94
2023-11-01T01:17:17.178Z,98715.41
2023-11-01T01:19:48.920Z,98707.53
2023-11-01T01:22:17.464Z,98696.75
2023-11-01T01:24:46.120Z,98708.56
2023-11-01T01:27:14.803Z,98718.31
2023-11-01T01:29:43.401Z,98716.88
2023-11-01T01:32:11.994Z,98717.94
2023-11-01T01:34:40.626Z,98724.56
2023-11-01T01:37:10.763Z,98721.06
2023-11-01T01:39:39.405Z,98721.88
2023-11-01T01:42:08.349Z,98719.19
2023-11-01T01:44:36.958Z,98718.16
2023-11-01T01:47:06.079Z,98725.44
2023-11-01T01:49:40.144Z,98719.81
2023-11-01T01:52:16.159Z,98727.91
2023-11-01T01:54:45.368Z,98731.44
2023-11-01T01:57:13.998Z,98732.06
2023-11-01T01:59:42.980Z,98735.81
2023-11-01T02:02:12.374Z,98735.34
2023-11-01T02:04:41.122Z,98720.88
2023-11-01T02:07:11.407Z,98727.09
2023-11-01T02:09:41.503Z,98729.97
2023-11-01T02:12:10.543Z,98727.09
2023-11-01T02:14:39.147Z,98726.25
2023-11-01T02:17:08.249Z,98722.91
2023-11-01T02:19:36.861Z,98721.28
2023-11-01T02:22:05.656Z,98729.34
2023-11-01T02:24:35.904Z,98726.03
2023-11-01T02:27:06.187Z,98731.59
2023-11-01T02:29:34.693Z,98739.03
2023-11-01T02:32:04.270Z,98732.81
2023-11-01T02:34:32.738Z,98731.81
2023-11-01T02:37:01.342Z,98739.91
2023-11-01T02:39:30.079Z,98744.00
2023-11-01T02:42:00.769Z,98739.63
2023-11-01T02:44:29.610Z,98748.75
2023-11-01T02:46:58.500Z,98739.00
2023-11-01T02:49:27.167Z,98744.59
2023-11-01T02:51:55.715Z,98744.41
2023-11-01T02:54:24.635Z,98741.25
2023-11-01T02:56:53.239Z,98744.16
2023-11-01T02:59:23.620Z,98742.28
2023-11-01T03:01:52.289Z,98740.19
2023-11-01T03:04:20.861Z,98737.66
2023-11-01T03:06:50.216Z,98740.94
2023-11-01T03:09:18.788Z,98735.56
2023-11-01T03:11:48.947Z,98728.06
2023-11-01T03:14:17.594Z,98726.59
2023-11-01T03:16:47.628Z,98728.66
2023-11-01T03:19:16.219Z,98732.56
2023-11-01T03:21:44.798Z,98725.72
2023-11-01T03:24:13.534Z,98727.13
2023-11-01T03:26:43.457Z,98718.97
2023-11-01T03:29:12.293Z,98723.72
2023-11-01T03:31:41.015Z,98717.47
2023-11-01T03:34:11.450Z,98721.81
2023-11-01T03:36:40.091Z,98725.06
2023-11-01T03:39:11.884Z,98710.78
2023-11-01T03:41:42.121Z,98723.22
2023-11-01T03:44:11.143Z,98726.94
2023-11-01T03:46:39.881Z,98730.63
2023-11-01T03:49:08.555Z,98739.38
2023-11-01T03:51:38.524Z,98742.53
2023-11-01T03:54:07.213Z,98738.63
2023-11-01T03:56:35.903Z,98734.88
2023-11-01T03:59:04.706Z,98731.34
2023-11-01T04:01:33.584Z,98740.22
2023-11-01T04:04:02.595Z,98743.50
2023-11-01T04:06:31.632Z,98739.94
2023-11-01T04:09:02.107Z,98731.59
2023-11-01T04:11:32.013Z,98740.53
2023-11-01T04:14:00.828Z,98755.84
2023-11-01T04:16:30.389Z,98760.41
2023-11-01T04:18:59.403Z,98764.78
2023-11-01T04:21:29.864Z,98761.88
2023-11-01T04:23:58.515Z,98763.75
2023-11-01T04:26:28.860Z,98756.69
2023-11-01T04:28:58.587Z,98753.34
2023-11-01T04:31:27.439Z,98748.16
2023-11-01T04:33:58.982Z,98763.31
2023-11-01T04:36:27.932Z,98757.91
2023-11-01T04:38:56.911Z,98756.22
2023-11-01T04:41:29.728Z,98757.91
2023-11-01T04:44:01.385Z,98755.84
2023-11-01T04:46:30.242Z,98758.94
2023-11-01T04:48:59.109Z,98755.41
2023-11-01T04:51:27.826Z,98752.72
2023-11-01T04:53:56.562Z,98752.06
2023-11-01T04:56:25.190Z,98752.91
2023-11-01T04:58:56.068Z,98751.88
2023-11-01T05:01:25.519Z,98751.22
2023-11-01T05:03:54.128Z,98734.59
2023-11-01T05:06:22.868Z,98739.38
2023-11-01T05:08:51.425Z,98745.59
2023-11-01T05:11:20.173Z,98753.03
2023-11-01T05:13:48.936Z,98764.19
2023-11-01T05:16:19.296Z,98768.91
2023-11-01T05:18:48.045Z,98765.56
2023-11-01T05:21:17.026Z,98771.34
2023-11-01T05:23:47.214Z,98768.66
2023-11-01T05:26:17.083Z,98780.44
2023-11-01T05:28:46.278Z,98781.47
2023-11-01T05:31:15.137Z,98783.50
2023-11-01T05:33:45.304Z,98797.34
2023-11-01T05:36:15.753Z,98792.78
2023-11-01T05:38:45.709Z,98796.31
2023-11-01T05:41:14.429Z,98792.78
2023-11-01T05:43:43.308Z,98790.31
2023-11-01T05:46:12.007Z,98794.00
2023-11-01T05:48:40.848Z,98797.72
2023-11-01T05:51:11.155Z,98810.16
2023-11-01T05:53:40.057Z,98813.69
2023-11-01T05:56:10.767Z,98824.66
2023-11-01T05:58:39.466Z,98828.16
2023-11-01T06:01:08.943Z,98830.88
2023-11-01T06:03:37.837Z,98835.22
2023-11-01T06:06:07.367Z,98839.94
2023-11-01T06:08:37.513Z,98837.63
2023-11-01T06:11:08.848Z,98849.22
2023-11-01T06:13:37.684Z,98845.72
2023-11-01T06:16:09.273Z,98837.63
2023-11-01T06:18:38.246Z,98844.31
2023-11-01T06:21:07.547Z,98835.59
2023-11-01T06:23:38.739Z,98825.66
2023-11-01T06:26:07.518Z,98821.31
2023-11-01T06:28:36.631Z,98820.47
2023-11-01T06:31:05.912Z,98822.97
2023-11-01T06:33:34.586Z,98833.72
2023-11-01T06:36:03.468Z,98835.78
2023-11-01T06:38:32.378Z,98845.53
2023-11-01T06:41:05.209Z,98846.53
2023-11-01T06:43:34.309Z,98848.41
2023-11-01T06:46:02.889Z,98851.28
2023-11-01T06:48:31.794Z,98856.84
2023-11-01T06:51:00.640Z,98867.78
2023-11-01T06:53:29.196Z,98863.00
2023-11-01T06:55:57.826Z,98872.44
2023-11-01T06:58:27.922Z,98871.34
2023-11-01T07:00:56.561Z,98870.69
2023-11-01T07:03:25.292Z,98878.75
2023-11-01T07:05:53.990Z,98875.59
2023-11-01T07:08:22.753Z,98871.22
2023-11-01T07:10:51.538Z,98865.03
2023-11-01T07:13:20.212Z,98870.59
2023-11-01T07:15:50.804Z,98871.63
2023-11-01T07:18:20.206Z,98874.31
2023-11-01T07:20:49.335Z,98886.28
2023-11-01T07:23:18.370Z,98888.31
2023-11-01T07:25:47.206Z,98890.34
2023-11-01T07:28:16.627Z,98901.09
2023-11-01T07:30:45.373Z,98910.19
2023-11-01T07:33:15.941Z,98897.75
2023-11-01T07:35:44.945Z,98913.06
2023-11-01T07:38:14.249Z,98912.88
2023-11-01T07:40:43.195Z,98910.19
2023-11-01T07:43:11.929Z,98914.38
2023-11-01T07:45:40.614Z,98917.25
2023-11-01T07:48:09.941Z,98920.97
2023-11-01T07:50:41.819Z,98922.63
2023-11-01T07:53:10.959Z,98924.66
2023-11-01T07:55:39.751Z,98932.06
2023-11-01T07:58:08.906Z,98935.78
2023-11-01T08:00:37.631Z,98943.19
2023-11-01T08:03:06.523Z,98945.06
2023-11-01T08:05:35.255Z,98955.97
2023-11-01T08:08:05.734Z,98970.47
2023-11-01T08:10:34.337Z,98972.31
2023-11-01T08:13:03.085Z,98983.25
2023-11-01T08:15:34.524Z,98979.53
2023-11-01T08:18:04.843Z,98975.00
2023-11-01T08:20:33.770Z,98989.09
2023-11-01T08:23:02.632Z,98992.28
2023-11-01T08:25:34.425Z,98999.97
2023-11-01T08:28:03.944Z,99006.19
2023-11-01T08:30:32.576Z,99002.97
2023-11-01T08:33:01.593Z,99001.59
2023-11-01T08:35:33.474Z,99004.28
2023-11-01T08:38:04.394Z,99019.22
2023-11-01T08:40:34.394Z,99023.78
2023-11-01T08:43:03.048Z,99035.25
2023-11-01T08:45:31.870Z,99050.56
2023-11-01T08:48:01.745Z,99058.78
2023-11-01T08:50:30.504Z,99070.59
2023-11-01T08:53:00.298Z,99068.44
2023-11-01T08:55:28.889Z,99084.41
2023-11-01T08:57:58.942Z,99083.38
2023-11-01T09:00:39.200Z,99097.06
2023-11-01T09:03:15.444Z,99095.41
2023-11-01T09:05:44.287Z,99108.72
2023-11-01T09:08:13.110Z,99110.91
2023-11-01T09:10:41.860Z,99102.00
2023-11-01T09:13:12.113Z,99103.38
2023-11-01T09:15:44.251Z,99091.97
2023-11-01T09:18:13.191Z,99104.75
2023-11-01T09:20:41.973Z,99096.69
2023-11-01T09:23:10.841Z,99108.09
2023-11-01T09:25:39.845Z,99102.22
2023-11-01T09:28:14.788Z,99102.41
2023-11-01T09:30:43.611Z,99111.47
2023-11-01T09:33:12.476Z,99115.56
2023-11-01T09:35:41.432Z,99114.69
2023-11-01T09:38:10.356Z,99117.56
2023-11-01T09:40:39.120Z,99121.91
2023-11-01T09:43:10.390Z,99127.16
2023-11-01T09:45:41.178Z,99120.59
2023-11-01T09:48:11.180Z,99133.84
2023-11-01T09:50:41.592Z,99137.25
2023-11-01T09:53:10.299Z,99144.50
2023-11-01T09:55:38.967Z,99136.94
2023-11-01T09:58:11.390Z,99134.25
2023-11-01T10:00:42.306Z,99134.78
2023-11-01T10:03:11.545Z,99131.06
2023-11-01T10:05:40.279Z,99142.31
2023-11-01T10:08:09.074Z,99137.25
2023-11-01T10:10:38.078Z,99134.41
2023-11-01T10:13:07.197Z,99139.44
2023-11-01T10:15:35.810Z,99140.47
2023-11-01T10:18:06.372Z,99157.56
2023-11-01T10:20:35.358Z,99151.53
2023-11-01T10:23:03.972Z,99160.94
2023-11-01T10:25:32.790Z,99153.25
2023-11-01T10:28:03.024Z,99172.41
2023-11-01T10:30:32.147Z,99174.94
2023-11-01T10:33:02.254Z,99188.91
2023-11-01T10:35:36.772Z,99194.63
2023-11-01T10:38:05.630Z,99192.56
2023-11-01T10:40:34.391Z,99191.09
2023-11-01T10:43:05.294Z,99195.63
2023-11-01T10:45:35.644Z,99197.16
2023-11-01T10:48:07.385Z,99201.84
2023-11-01T10:50:38.587Z,99211.06
2023-11-01T10:53:08.656Z,99208.03
2023-11-01T10:55:38.470Z,99213.44
2023-11-01T10:58:12.008Z,99220.13
2023-11-01T11:00:50.106Z,99228.88
2023-11-01T11:03:28.204Z,99231.88
2023-11-01T11:05:59.355Z,99231.69
2023-11-01T11:08:27.804Z,99239.59
2023-11-01T11:11:18.417Z,99245.81
2023-11-01T11:13:51.428Z,99247.31
2023-11-01T11:16:22.465Z,99260.06
2023-11-01T11:19:00.931Z,99249.66
2023-11-01T11:22:04.900Z,99257.38
2023-11-01T11:24:58.956Z,99271.16
2023-11-01T11:27:55.172Z,99271.00
2023-11-01T11:31:10.277Z,99283.75
2023-11-01T11:33:41.410Z,99280.38
2023-11-01T11:36:14.242Z,99288.78
2023-11-01T11:38:55.609Z,99288.28
2023-11-01T11:41:25.613Z,99288.78
2023-11-01T11:44:08.623Z,99292.63
2023-11-01T11:46:41.260Z,99295.13
2023-11-01T11:49:10.962Z,99307.72
2023-11-01T11:51:40.555Z,99297.47
2023-11-01T11:54:16.145Z,99308.22
2023-11-01T11:56:45.624Z,99313.41
2023-11-01T11:59:22.105Z,99307.38
2023-11-01T12:01:53.058Z,99326.47
2023-11-01T12:04:22.195Z,99314.22
2023-11-01T12:06:52.905Z,99325.09
2023-11-01T12:09:27.043Z,99328.31
2023-11-01T12:11:56.991Z,99335.81
2023-11-01T12:14:26.651Z,99334.50
2023-11-01T12:16:57.721Z,99339.31
2023-11-01T12:19:26.482Z,99341.50
2023-11-01T12:21:56.432Z,99345.16
2023-11-01T12:24:30.227Z,99352.50
2023-11-01T12:27:07.956Z,99354.16
2023-11-01T12:29:42.310Z,99362.53
2023-11-01T12:32:12.417Z,99363.06
2023-11-01T12:34:42.349Z,99376.66
2023-11-01T12:37:15.510Z,99364.94
2023-11-01T12:40:05.444Z,99371.97
2023-11-01T12:42:35.745Z,99378.34
2023-11-01T12:45:04.959Z,99386.91
2023-11-01T12:47:42.831Z,99390.41
2023-11-01T12:50:13.431Z,99386.75
2023-11-01T12:52:42.583Z,99391.56
2023-11-01T12:55:13.386Z,99394.72
2023-11-01T12:57:48.174Z,99398.25
2023-11-01T13:00:18.345Z,99397.88
2023-11-01T13:02:47.396Z,99399.34
2023-11-01T13:05:16.925Z,99403.56
2023-11-01T13:07:47.232Z,99411.25
2023-11-01T13:10:18.020Z,99414.41
2023-11-01T13:12:49.084Z,99419.25
2023-11-01T13:15:18.592Z,99415.72
2023-11-01T13:17:49.614Z,99423.44
2023-11-01T13:20:18.728Z,99425.44
2023-11-01T13:22:48.130Z,99434.66
2023-11-01T13:25:18.298Z,99438.81
2023-11-01T13:27:47.254Z,99440.78
2023-11-01T13:30:15.969Z,99445.47
2023-11-01T13:32:45.202Z,99445.47
2023-11-01T13:35:13.968Z,99451.84
2023-11-01T13:37:42.750Z,99457.47
2023-11-01T13:40:13.154Z,99452.59
2023-11-01T13:42:43.290Z,99466.16
2023-11-01T13:45:12.504Z,99461.13
2023-11-01T13:47:41.283Z,99476.50
2023-11-01T13:50:11.379Z,99475.44
2023-11-01T13:52:40.899Z,99472.38
2023-11-01T13:55:10.931Z,99474.34
2023-11-01T13:57:40.506Z,99472.13
2023-11-01T14:00:12.296Z,99485.53
2023-11-01T14:02:41.412Z,99480.31
2023-11-01T14:05:10.429Z,99495.88
2023-11-01T14:07:39.044Z,99491.66
2023-11-01T14:10:08.836Z,99501.28
2023-11-01T14:12:37.865Z,99491.56
2023-11-01T14:15:07.814Z,99496.22
2023-11-01T14:17:38.009Z,99501.31
2023-11-01T14:20:10.753Z,99499.91
2023-11-01T14:22:42.987Z,99516.16
2023-11-01T14:25:13.715Z,99510.94
2023-11-01T14:27:43.126Z,99515.78
2023-11-01T14:30:12.726Z,99526.94
2023-11-01T14:32:45.180Z,99536.09
2023-11-01T14:35:14.689Z,99537.38
2023-11-01T14:37:43.915Z,99530.50
2023-11-01T14:40:13.757Z,99539.81
2023-11-01T14:42:43.316Z,99537.59
2023-11-01T14:45:12.735Z,99537.84
2023-11-01T14:47:41.646Z,99544.13
2023-11-01T14:50:12.831Z,99548.63
2023-11-01T14:52:41.454Z,99547.63
2023-11-01T14:55:10.519Z,99552.16
2023-11-01T14:57:39.759Z,99552.16
2023-11-01T15:00:09.698Z,99552.41
2023-11-01T15:02:38.557Z,99555.38
2023-11-01T15:05:08.056Z,99559.06
2023-11-01T15:07:38.602Z,99562.03
2023-11-01T15:10:08.634Z,99575.44
2023-11-01T15:12:37.694Z,99570.34
2023-11-01T15:15:07.388Z,99574.72
2023-11-01T15:17:36.157Z,99582.75
2023-11-01T15:20:05.596Z,99596.13
2023-11-01T15:22:34.235Z,99596.84
2023-11-01T15:25:04.270Z,99597.81
2023-11-01T15:27:33.334Z,99595.97
2023-11-01T15:30:01.994Z,99599.78
2023-11-01T15:32:30.606Z,99598.94
2023-11-01T15:34:59.254Z,99602.22
2023-11-01T15:37:28.311Z,99607.41
2023-11-01T15:39:56.920Z,99608.53
2023-11-01T15:42:27.600Z,99605.88
2023-11-01T15:44:56.586Z,99613.19
2023-11-01T15:47:25.234Z,99619.97
2023-11-01T15:49:53.856Z,99619.13
2023-11-01T15:52:22.338Z,99616.16
2023-11-01T15:54:52.635Z,99618.00
2023-11-01T15:57:23.018Z,99621.69
2023-11-01T15:59:54.537Z,99625.31
2023-11-01T16:02:23.365Z,99629.13
2023-11-01T16:04:52.177Z,99631.66
2023-11-01T16:07:21.565Z,99618.59
2023-11-01T16:09:50.472Z,99626.88
2023-11-01T16:12:19.121Z,99630.41
2023-11-01T16:14:47.764Z,99631.25
2023-11-01T16:17:17.924Z,99630.66
2023-11-01T16:19:47.101Z,99628.88
2023-11-01T16:22:16.348Z,99644.19
2023-11-01T16:24:45.161Z,99643.50
2023-11-01T16:27:13.837Z,99642.78
2023-11-01T16:29:42.568Z,99650.94
2023-11-01T16:32:11.155Z,99653.34
2023-11-01T16:34:43.617Z,99663.59
2023-11-01T16:37:12.324Z,99656.84
2023-11-01T16:39:41.186Z,99657.41
2023-11-01T16:42:15.706Z,99657.66
2023-11-01T16:44:44.890Z,99659.19
2023-11-01T16:47:13.766Z,99667.91
2023-11-01T16:49:45.396Z,99667.50
2023-11-01T16:52:14.260Z,99672.84
2023-11-01T16:54:42.874Z,99670.16
2023-11-01T16:57:11.606Z,99678.47
2023-11-01T16:59:40.438Z,99677.03
2023-11-01T17:02:09.285Z,99672.97
2023-11-01T17:04:38.198Z,99685.31
2023-11-01T17:07:09.168Z,99687.16
2023-11-01T17:09:37.627Z,99676.88
2023-11-01T17:12:07.452Z,99686.28
2023-11-01T17:14:36.393Z,99690.75
2023-11-01T17:17:05.282Z,99701.72
2023-11-01T17:19:33.987Z,99701.72
2023-11-01T17:22:06.536Z,99706.09
2023-11-01T17:24:36.695Z,99704.41
2023-11-01T17:27:05.742Z,99710.03
2023-11-01T17:29:35.593Z,99708.19
2023-11-01T17:32:04.915Z,99712.69
2023-11-01T17:34:34.488Z,99718.88
2023-11-01T17:37:05.184Z,99721.53
2023-11-01T17:39:40.061Z,99723.66
2023-11-01T17:42:12.234Z,99726.16
2023-11-01T17:44:45.649Z,99720.72
2023-11-01T17:47:27.797Z,99725.31
2023-11-01T17:49:58.489Z,99721.69
2023-11-01T17:52:31.348Z,99725.22
2023-11-01T17:55:02.514Z,99725.94
2023-11-01T17:57:33.665Z,99744.03
2023-11-01T18:00:03.126Z,99746.97
2023-11-01T18:03:20.290Z,99755.44
2023-11-01T18:05:50.092Z,99746.69
2023-11-01T18:08:20.514Z,99746.97
2023-11-01T18:10:52.210Z,99753.44
2023-11-01T18:13:26.970Z,99745.53
2023-11-01T18:15:57.619Z,99756.22
2023-11-01T18:18:43.276Z,99751.03
2023-11-01T18:21:16.255Z,99757.22
2023-11-01T18:23:53.377Z,99759.28
2023-11-01T18:26:24.554Z,99772.78
2023-11-01T18:28:55.232Z,99768.28
2023-11-01T18:31:26.288Z,99765.63
2023-11-01T18:33:59.130Z,99776.69
2023-11-01T18:36:29.714Z,99778.41
2023-11-01T18:39:00.375Z,99781.06
2023-11-01T18:41:35.496Z,99786.25
2023-11-01T18:44:05.435Z,99789.09
2023-11-01T18:46:36.187Z,99782.31
2023-11-01T18:49:06.768Z,99792.16
2023-11-01T18:51:57.800Z,99790.44
2023-11-01T18:54:44.960Z,99801.94
2023-11-01T18:57:17.993Z,99806.44
2023-11-01T18:59:47.018Z,99813.63
2023-11-01T19:02:51.206Z,99819.09
2023-11-01T19:05:20.027Z,99822.03
2023-11-01T19:07:48.976Z,99807.84
2023-11-01T19:10:23.163Z,99816.69
2023-11-01T19:12:56.322Z,99806.91
2023-11-01T19:16:17.274Z,99807.19
2023-11-01T19:18:51.557Z,99821.75
2023-11-01T19:21:20.787Z,99835.38
2023-11-01T19:23:50.670Z,99833.81
2023-11-01T19:26:22.309Z,99819.59
2023-11-01T19:28:53.264Z,99829.56
2023-11-01T19:31:26.123Z,99831.50
2023-11-01T19:33:55.844Z,99831.78
2023-11-01T19:36:27.322Z,99830.06
2023-11-01T19:38:56.586Z,99825.25
2023-11-01T19:41:25.594Z,99830.69
2023-11-01T19:43:59.994Z,99829.59
2023-11-01T19:46:28.786Z,99837.13
2023-11-01T19:48:57.447Z,99830.25
2023-11-01T19:51:26.436Z,99834.84
2023-11-01T19:53:55.179Z,99834.84
2023-11-01T19:56:25.001Z,99837.50
2023-11-01T19:58:54.354Z,99829.88
2023-11-01T20:01:24.861Z,99842.28
2023-11-01T20:03:53.789Z,99836.22
2023-11-01T20:06:23.594Z,99825.66
2023-11-01T20:08:52.419Z,99844.22
2023-11-01T20:11:21.054Z,99852.34
2023-11-01T20:13:49.721Z,99840.09
2023-11-01T20:16:25.574Z,99840.09
2023-11-01T20:19:04.587Z,99836.59
2023-11-01T20:21:33.756Z,99839.50
2023-11-01T20:24:02.572Z,99832.34
2023-11-01T20:26:31.765Z,99835.75
2023-11-01T20:29:00.927Z,99839.38
2023-11-01T20:31:29.968Z,99839.38
2023-11-01T20:33:59.045Z,99842.19
2023-11-01T20:36:29.037Z,99848.47
2023-11-01T20:38:57.851Z,99840.47
2023-11-01T20:41:26.581Z,99840.72
2023-11-01T20:43:55.223Z,99850.41
2023-11-01T20:46:23.710Z,99843.38
2023-11-01T20:48:54.288Z,99846.06
2023-11-01T20:51:23.544Z,99842.81
2023-11-01T20:53:55.048Z,99834.81
2023-11-01T20:56:24.250Z,99836.22
2023-11-01T20:58:53.228Z,99825.72
2023-11-01T21:01:22.207Z,99827.38
2023-11-01T21:03:51.182Z,99830.91
2023-11-01T21:06:20.863Z,99839.88
2023-11-01T21:08:49.489Z,99840.97
2023-11-01T21:11:20.893Z,99838.44
2023-11-01T21:13:52.923Z,99832.63
2023-11-01T21:16:21.440Z,99825.84
2023-11-01T21:18:51.007Z,99834.09
2023-11-01T21:21:19.821Z,99832.16
2023-11-01T21:23:48.389Z,99841.97
2023-11-01T21:26:18.301Z,99853.47
2023-11-01T21:28:46.941Z,99862.31
2023-11-01T21:31:15.490Z,99859.91
2023-11-01T21:33:47.327Z,99866.59
2023-11-01T21:36:16.186Z,99862.84
2023-11-01T21:38:44.936Z,99859.44
2023-11-01T21:41:13.629Z,99863.09
2023-11-01T21:43:53.985Z,99874.47
2023-11-01T21:46:31.401Z,99860.31
2023-11-01T21:49:04.626Z,99850.84
2023-11-01T21:51:33.406Z,99850.47
2023-11-01T21:54:03.455Z,99857.88
2023-11-01T21:56:36.318Z,99861.03
2023-11-01T21:59:11.350Z,99855.00
2023-11-01T22:01:40.455Z,99868.06
2023-11-01T22:04:21.716Z,99859.00
2023-11-01T22:06:53.219Z,99860.06
2023-11-01T22:09:22.593Z,99872.19
2023-11-01T22:11:53.829Z,99871.69
2023-11-01T22:14:39.243Z,99871.69
2023-11-01T22:17:11.828Z,99869.38
2023-11-01T22:19:43.006Z,99884.50
2023-11-01T22:22:48.624Z,99883.03
2023-11-01T22:25:29.192Z,99891.28
2023-11-01T22:28:01.741Z,99898.88
2023-11-01T22:30:34.503Z,99902.50
2023-11-01T22:33:07.857Z,99898.97
2023-11-01T22:35:41.279Z,99902.03
2023-11-01T22:38:12.701Z,99909.13
2023-11-01T22:40:43.404Z,99909.38
2023-11-01T22:43:12.406Z,99919.19
2023-11-01T22:45:43.087Z,99912.88
2023-11-01T22:48:12.899Z,99915.19
2023-11-01T22:50:41.586Z,99915.38
2023-11-01T22:53:11.004Z,99907.53
2023-11-01T22:55:42.242Z,99917.84
2023-11-01T22:58:13.005Z,99920.25
2023-11-01T23:00:44.229Z,99917.72
2023-11-01T23:03:13.560Z,99920.38
2023-11-01T23:05:42.242Z,99912.63
2023-11-01T23:08:11.710Z,99915.38
2023-11-01T23:10:40.397Z,99920.00
2023-11-01T23:13:09.066Z,99921.94
2023-11-01T23:15:37.617Z,99914.88
2023-11-01T23:18:07.785Z,99921.94
2023-11-01T23:20:36.283Z,99916.94
2023-11-01T23:23:04.764Z,99914.38
2023-11-01T23:25:35.681Z,99909.19
2023-11-01T23:28:19.838Z,99922.94
2023-11-01T23:30:51.746Z,99914.13
2023-11-01T23:33:22.108Z,99912.41
2023-11-01T23:35:51.037Z,99908.16
2023-11-01T23:38:19.550Z,99920.84
2023-11-01T23:40:48.885Z,99914.06
2023-11-01T23:43:17.327Z,99910.69
2023-11-01T23:46:14.530Z,99916.00
2023-11-01T23:48:45.793Z,99910.69
2023-11-01T23:51:14.208Z,99925.16
2023-11-01T23:53:42.828Z,99914.75
2023-11-01T23:56:25.461Z,99914.97
2023-11-01T23:58:55.454Z,99916.91
